sensor_id;sensor_type;location;lat;lon;timestamp;pressure;altitude;pressure_sealevel;temperature;humidity
3668;BME280;24099;47.102;15.440;2022-08-26T00:01:31;96876.41;;;16.93;100.00
3668;BME280;24099;47.102;15.440;2022-08-26T00:03:58;96865.78;;;16.93;100.00
3668;BME280;24099;47.102;15.440;2022-08-26T00:06:26;96875.25;;;16.89;100.00
3668;BME280;24099;47.102;15.440;2022-08-26T00:08:55;96876.50;;;16.86;100.00
3668;BME280;24099;47.102;15.440;2022-08-26T00:11:23;96879.97;;;16.87;100.00
3668;BME280;24099;47.102;15.440;2022-08-26T00:13:50;96877.81;;;16.96;100.00
3668;BME280;24099;47.102;15.440;2022-08-26T00:16:19;96880.56;;;17.01;100.00
3668;BME280;24099;47.102;15.440;2022-08-26T00:18:47;96870.38;;;16.86;100.00
3668;BME280;24099;47.102;15.440;2022-08-26T00:21:15;96876.59;;;16.80;100.00
3668;BME280;24099;47.102;15.440;2022-08-26T00:23:42;96880.34;;;16.91;100.00
3668;BME280;24099;47.102;15.440;2022-08-26T00:26:10;96874.53;;;16.82;100.00
3668;BME280;24099;47.102;15.440;2022-08-26T00:28:39;96865.28;;;16.84;100.00
3668;BME280;24099;47.102;15.440;2022-08-26T00:31:06;96865.06;;;16.86;100.00
3668;BME280;24099;47.102;15.440;2022-08-26T00:33:35;96870.72;;;16.78;100.00
3668;BME280;24099;47.102;15.440;2022-08-26T00:36:04;96876.94;;;16.72;100.00
3668;BME280;24099;47.102;15.440;2022-08-26T00:38:31;96872.31;;;16.79;100.00
3668;BME280;24099;47.102;15.440;2022-08-26T00:40:59;96867.94;;;16.73;100.00
3668;BME280;24099;47.102;15.440;2022-08-26T00:43:32;96857.53;;;16.71;100.00
3668;BME280;24099;47.102;15.440;2022-08-26T00:46:06;96859.84;;;16.68;100.00
3668;BME280;24099;47.102;15.440;2022-08-26T00:48:38;96857.84;;;16.63;100.00
3668;BME280;24099;47.102;15.440;2022-08-26T00:51:15;96867.00;;;16.67;100.00
3668;BME280;24099;47.102;15.440;2022-08-26T00:53:48;96861.69;;;16.67;100.00
3668;BME280;24099;47.102;15.440;2022-08-26T00:56:21;96865.97;;;16.68;100.00
3668;BME280;24099;47.102;15.440;2022-08-26T00:58:50;96867.81;;;16.68;100.00
3668;BME280;24099;47.102;15.440;2022-08-26T01:01:18;96868.84;;;16.67;100.00
3668;BME280;24099;47.102;15.440;2022-08-26T01:03:47;96854.69;;;16.54;100.00
3668;BME280;24099;47.102;15.440;2022-08-26T01:06:15;96863.97;;;16.64;100.00
3668;BME280;24099;47.102;15.440;2022-08-26T01:08:43;96861.91;;;16.66;100.00
3668;BME280;24099;47.102;15.440;2022-08-26T01:11:11;96860.66;;;16.68;100.00
3668;BME280;24099;47.102;15.440;2022-08-26T01:13:39;96860.28;;;16.65;100.00
3668;BME280;24099;47.102;15.440;2022-08-26T01:16:11;96864.88;;;16.58;100.00
3668;BME280;24099;47.102;15.440;2022-08-26T01:18:42;96862.09;;;16.52;100.00
3668;BME280;24099;47.102;15.440;2022-08-26T01:21:18;96859.78;;;16.56;100.00
3668;BME280;24099;47.102;15.440;2022-08-26T01:23:50;96857.66;;;16.46;100.00
3668;BME280;24099;47.102;15.440;2022-08-26T01:26:22;96866.66;;;16.45;100.00
3668;BME280;24099;47.102;15.440;2022-08-26T01:28:53;96857.66;;;16.46;100.00
3668;BME280;24099;47.102;15.440;2022-08-26T01:31:27;96867.84;;;16.49;100.00
3668;BME280;24099;47.102;15.440;2022-08-26T01:34:02;96872.34;;;16.49;100.00
3668;BME280;24099;47.102;15.440;2022-08-26T01:36:32;96859.50;;;16.46;100.00
3668;BME280;24099;47.102;15.440;2022-08-26T01:39:02;96858.25;;;16.48;100.00
3668;BME280;24099;47.102;15.440;2022-08-26T01:41:30;96863.56;;;16.48;100.00
3668;BME280;24099;47.102;15.440;2022-08-26T01:43:59;96866.66;;;16.45;100.00
3668;BME280;24099;47.102;15.440;2022-08-26T01:46:29;96865.16;;;16.38;100.00
3668;BME280;24099;47.102;15.440;2022-08-26T01:49:01;96862.72;;;16.36;100.00
3668;BME280;24099;47.102;15.440;2022-08-26T01:51:30;96857.66;;;16.46;100.00
3668;BME280;24099;47.102;15.440;2022-08-26T01:54:04;96865.47;;;16.30;100.00
3668;BME280;24099;47.102;15.440;2022-08-26T01:56:33;96860.47;;;16.22;100.00
3668;BME280;24099;47.102;15.440;2022-08-26T01:59:06;96865.09;;;16.26;100.00
3668;BME280;24099;47.102;15.440;2022-08-26T02:01:35;96868.94;;;16.30;100.00
3668;BME280;24099;47.102;15.440;2022-08-26T02:04:23;96868.13;;;16.30;100.00
3668;BME280;24099;47.102;15.440;2022-08-26T02:06:53;96859.19;;;16.24;100.00
3668;BME280;24099;47.102;15.440;2022-08-26T02:09:24;96861.19;;;16.29;100.00
3668;BME280;24099;47.102;15.440;2022-08-26T02:11:52;96866.72;;;16.27;100.00
3668;BME280;24099;47.102;15.440;2022-08-26T02:14:23;96864.50;;;16.24;100.00
3668;BME280;24099;47.102;15.440;2022-08-26T02:16:53;96866.13;;;16.25;100.00
3668;BME280;24099;47.102;15.440;2022-08-26T02:19:25;96863.47;;;16.25;100.00
3668;BME280;24099;47.102;15.440;2022-08-26T02:21:53;96858.28;;;16.18;100.00
3668;BME280;24099;47.102;15.440;2022-08-26T02:24:27;96856.78;;;16.23;100.00
3668;BME280;24099;47.102;15.440;2022-08-26T02:26:56;96856.41;;;16.19;100.00
3668;BME280;24099;47.102;15.440;2022-08-26T02:29:28;96867.63;;;16.21;100.00
3668;BME280;24099;47.102;15.440;2022-08-26T02:31:58;96857.59;;;16.23;100.00
3668;BME280;24099;47.102;15.440;2022-08-26T02:34:29;96865.78;;;16.22;100.00
3668;BME280;24099;47.102;15.440;2022-08-26T02:36:58;96862.53;;;16.19;100.00
3668;BME280;24099;47.102;15.440;2022-08-26T02:39:28;96859.06;;;16.19;100.00
3668;BME280;24099;47.102;15.440;2022-08-26T02:41:57;96861.28;;;16.22;100.00
3668;BME280;24099;47.102;15.440;2022-08-26T02:44:25;96851.34;;;16.17;100.00
3668;BME280;24099;47.102;15.440;2022-08-26T02:46:53;96849.56;;;16.11;100.00
3668;BME280;24099;47.102;15.440;2022-08-26T02:49:22;96853.53;;;16.20;100.00
3668;BME280;24099;47.102;15.440;2022-08-26T02:51:50;96855.84;;;16.17;100.00
3668;BME280;24099;47.102;15.440;2022-08-26T02:54:19;96856.50;;;16.12;100.00
3668;BME280;24099;47.102;15.440;2022-08-26T02:56:49;96855.25;;;16.15;100.00
3668;BME280;24099;47.102;15.440;2022-08-26T02:59:17;96853.63;;;16.14;100.00
3668;BME280;24099;47.102;15.440;2022-08-26T03:01:44;96851.28;;;16.06;100.00
3668;BME280;24099;47.102;15.440;2022-08-26T03:04:13;96851.88;;;16.08;100.00
3668;BME280;24099;47.102;15.440;2022-08-26T03:06:41;96853.63;;;16.14;100.00
3668;BME280;24099;47.102;15.440;2022-08-26T03:09:08;96846.19;;;16.04;100.00
3668;BME280;24099;47.102;15.440;2022-08-26T03:11:36;96848.63;;;16.06;100.00
3668;BME280;24099;47.102;15.440;2022-08-26T03:14:07;96848.41;;;16.07;100.00
3668;BME280;24099;47.102;15.440;2022-08-26T03:16:36;96841.69;;;16.05;100.00
3668;BME280;24099;47.102;15.440;2022-08-26T03:19:06;96840.44;;;16.07;100.00
3668;BME280;24099;47.102;15.440;2022-08-26T03:21:36;96833.59;;;16.00;100.00
3668;BME280;24099;47.102;15.440;2022-08-26T03:24:04;96844.78;;;16.02;100.00
3668;BME280;24099;47.102;15.440;2022-08-26T03:26:34;96833.59;;;16.00;100.00
3668;BME280;24099;47.102;15.440;2022-08-26T03:29:01;96839.03;;;16.05;100.00
3668;BME280;24099;47.102;15.440;2022-08-26T03:31:48;96840.06;;;16.04;100.00
3668;BME280;24099;47.102;15.440;2022-08-26T03:34:16;96840.44;;;16.07;100.00
3668;BME280;24099;47.102;15.440;2022-08-26T03:36:44;96837.41;;;16.04;100.00
3668;BME280;24099;47.102;15.440;2022-08-26T03:39:12;96836.81;;;16.02;100.00
3668;BME280;24099;47.102;15.440;2022-08-26T03:41:41;96840.25;;;15.91;100.00
3668;BME280;24099;47.102;15.440;2022-08-26T03:44:10;96836.63;;;15.85;100.00
3668;BME280;24099;47.102;15.440;2022-08-26T03:46:39;96831.91;;;15.87;100.00
3668;BME280;24099;47.102;15.440;2022-08-26T03:49:08;96830.06;;;15.88;100.00
3668;BME280;24099;47.102;15.440;2022-08-26T03:51:38;96833.16;;;15.84;100.00
3668;BME280;24099;47.102;15.440;2022-08-26T03:54:06;96829.63;;;15.91;100.00
3668;BME280;24099;47.102;15.440;2022-08-26T03:56:34;96836.41;;;15.87;100.00
3668;BME280;24099;47.102;15.440;2022-08-26T03:59:02;96828.00;;;15.90;100.00
3668;BME280;24099;47.102;15.440;2022-08-26T04:01:30;96833.91;;;15.92;100.00
3668;BME280;24099;47.102;15.440;2022-08-26T04:03:58;96835.97;;;15.90;100.00
3668;BME280;24099;47.102;15.440;2022-08-26T04:06:30;96835.69;;;15.98;100.00
3668;BME280;24099;47.102;15.440;2022-08-26T04:09:03;96834.94;;;15.91;100.00
3668;BME280;24099;47.102;15.440;2022-08-26T04:11:35;96831.47;;;15.90;100.00
3668;BME280;24099;47.102;15.440;2022-08-26T04:14:08;96834.56;;;15.87;100.00
3668;BME280;24099;47.102;15.440;2022-08-26T04:16:38;96828.00;;;15.90;100.00
3668;BME280;24099;47.102;15.440;2022-08-26T04:19:06;96825.88;;;15.98;100.00
3668;BME280;24099;47.102;15.440;2022-08-26T04:21:35;96836.81;;;16.02;100.00
3668;BME280;24099;47.102;15.440;2022-08-26T04:24:04;96834.50;;;15.94;100.00
3668;BME280;24099;47.102;15.440;2022-08-26T04:26:37;96827.38;;;16.06;100.00
3668;BME280;24099;47.102;15.440;2022-08-26T04:29:09;96831.41;;;15.97;100.00
3668;BME280;24099;47.102;15.440;2022-08-26T04:31:37;96837.84;;;16.01;100.00
3668;BME280;24099;47.102;15.440;2022-08-26T04:34:05;96837.63;;;16.02;100.00
3668;BME280;24099;47.102;15.440;2022-08-26T04:36:35;96836.97;;;16.07;100.00
3668;BME280;24099;47.102;15.440;2022-08-26T04:39:03;96834.63;;;15.99;100.00
3668;BME280;24099;47.102;15.440;2022-08-26T04:41:31;96828.53;;;15.98;100.00
3668;BME280;24099;47.102;15.440;2022-08-26T04:43:59;96831.25;;;15.92;100.00
3668;BME280;24099;47.102;15.440;2022-08-26T04:46:28;96826.97;;;15.91;100.00
3668;BME280;24099;47.102;15.440;2022-08-26T04:48:55;96826.53;;;15.94;100.00
3668;BME280;24099;47.102;15.440;2022-08-26T04:51:23;96829.78;;;15.96;100.00
3668;BME280;24099;47.102;15.440;2022-08-26T04:53:55;96830.38;;;15.98;100.00
3668;BME280;24099;47.102;15.440;2022-08-26T04:56:24;96827.25;;;16.01;100.00
3668;BME280;24099;47.102;15.440;2022-08-26T04:58:52;96828.41;;;16.05;100.00
3668;BME280;24099;47.102;15.440;2022-08-26T05:01:21;96830.78;;;16.13;100.00
3668;BME280;24099;47.102;15.440;2022-08-26T05:03:50;96830.09;;;16.17;100.00
3668;BME280;24099;47.102;15.440;2022-08-26T05:06:18;96837.50;;;16.27;100.00
3668;BME280;24099;47.102;15.440;2022-08-26T05:08:46;96835.00;;;16.32;100.00
3668;BME280;24099;47.102;15.440;2022-08-26T05:11:16;96835.34;;;16.36;100.00
3668;BME280;24099;47.102;15.440;2022-08-26T05:13:44;96843.91;;;16.38;100.00
3668;BME280;24099;47.102;15.440;2022-08-26T05:16:13;96836.97;;;16.37;100.00
3668;BME280;24099;47.102;15.440;2022-08-26T05:18:42;96837.31;;;16.40;100.00
3668;BME280;24099;47.102;15.440;2022-08-26T05:21:23;96843.66;;;16.39;100.00
3668;BME280;24099;47.102;15.440;2022-08-26T05:23:51;96839.06;;;16.46;100.00
3668;BME280;24099;47.102;15.440;2022-08-26T05:26:22;96837.59;;;16.50;100.00
3668;BME280;24099;47.102;15.440;2022-08-26T05:28:50;96837.00;;;16.48;100.00
3668;BME280;24099;47.102;15.440;2022-08-26T05:31:20;96838.16;;;16.52;100.00
3668;BME280;24099;47.102;15.440;2022-08-26T05:33:50;96841.78;;;16.58;100.00
3668;BME280;24099;47.102;15.440;2022-08-26T05:36:21;96846.19;;;16.64;100.00
3668;BME280;24099;47.102;15.440;2022-08-26T05:38:49;96839.97;;;16.70;100.00
3668;BME280;24099;47.102;15.440;2022-08-26T05:41:19;96837.44;;;16.75;100.00
3668;BME280;24099;47.102;15.440;2022-08-26T05:43:50;96840.34;;;16.85;100.00
3668;BME280;24099;47.102;15.440;2022-08-26T05:46:18;96845.06;;;16.83;100.00
3668;BME280;24099;47.102;15.440;2022-08-26T05:48:45;96835.13;;;16.91;100.00
3668;BME280;24099;47.102;15.440;2022-08-26T05:51:13;96836.19;;;17.01;100.00
3668;BME280;24099;47.102;15.440;2022-08-26T05:53:42;96838.84;;;17.01;100.00
3668;BME280;24099;47.102;15.440;2022-08-26T05:56:12;96835.25;;;17.07;100.00
3668;BME280;24099;47.102;15.440;2022-08-26T05:58:41;96835.38;;;17.12;100.00
3668;BME280;24099;47.102;15.440;2022-08-26T06:01:16;96836.31;;;17.18;100.00
3668;BME280;24099;47.102;15.440;2022-08-26T06:03:49;96824.50;;;17.26;100.00
3668;BME280;24099;47.102;15.440;2022-08-26T06:06:20;96827.63;;;17.34;100.00
3668;BME280;24099;47.102;15.440;2022-08-26T06:08:49;96830.50;;;17.44;100.00
3668;BME280;24099;47.102;15.440;2022-08-26T06:11:20;96832.69;;;17.47;100.00
3668;BME280;24099;47.102;15.440;2022-08-26T06:13:51;96837.44;;;17.57;100.00
3668;BME280;24099;47.102;15.440;2022-08-26T06:16:23;96830.25;;;17.69;100.00
3668;BME280;24099;47.102;15.440;2022-08-26T06:18:54;96840.91;;;17.69;100.00
3668;BME280;24099;47.102;15.440;2022-08-26T06:21:26;96835.22;;;17.77;100.00
3668;BME280;24099;47.102;15.440;2022-08-26T06:23:56;96830.78;;;17.83;100.00
3668;BME280;24099;47.102;15.440;2022-08-26T06:26:47;96825.56;;;17.88;100.00
3668;BME280;24099;47.102;15.440;2022-08-26T06:29:16;96832.00;;;18.04;100.00
3668;BME280;24099;47.102;15.440;2022-08-26T06:31:46;96822.94;;;18.16;100.00
3668;BME280;24099;47.102;15.440;2022-08-26T06:34:14;96819.88;;;18.24;100.00
3668;BME280;24099;47.102;15.440;2022-08-26T06:36:43;96817.81;;;18.43;100.00
3668;BME280;24099;47.102;15.440;2022-08-26T06:39:13;96817.66;;;18.50;100.00
3668;BME280;24099;47.102;15.440;2022-08-26T06:41:44;96808.38;;;18.52;100.00
3668;BME280;24099;47.102;15.440;2022-08-26T06:44:16;96811.81;;;18.65;100.00
3668;BME280;24099;47.102;15.440;2022-08-26T06:46:46;96813.19;;;18.84;100.00
3668;BME280;24099;47.102;15.440;2022-08-26T06:49:14;96817.16;;;18.98;100.00
3668;BME280;24099;47.102;15.440;2022-08-26T06:51:43;96807.41;;;19.25;100.00
3668;BME280;24099;47.102;15.440;2022-08-26T06:54:11;96806.91;;;19.28;100.00
3668;BME280;24099;47.102;15.440;2022-08-26T06:56:41;96814.63;;;19.47;100.00
3668;BME280;24099;47.102;15.440;2022-08-26T06:59:11;96816.84;;;19.50;100.00
3668;BME280;24099;47.102;15.440;2022-08-26T07:01:41;96797.41;;;19.54;100.00
3668;BME280;24099;47.102;15.440;2022-08-26T07:04:14;96798.00;;;19.78;100.00
3668;BME280;24099;47.102;15.440;2022-08-26T07:06:43;96801.13;;;19.97;100.00
3668;BME280;24099;47.102;15.440;2022-08-26T07:09:14;96811.06;;;20.02;100.00
3668;BME280;24099;47.102;15.440;2022-08-26T07:11:42;96803.09;;;20.07;100.00
3668;BME280;24099;47.102;15.440;2022-08-26T07:14:10;96804.47;;;20.09;100.00
3668;BME280;24099;47.102;15.440;2022-08-26T07:16:39;96791.56;;;20.28;100.00
3668;BME280;24099;47.102;15.440;2022-08-26T07:19:07;96798.19;;;20.47;100.00
3668;BME280;24099;47.102;15.440;2022-08-26T07:21:38;96800.59;;;20.76;100.00
3668;BME280;24099;47.102;15.440;2022-08-26T07:24:07;96796.28;;;20.75;100.00
3668;BME280;24099;47.102;15.440;2022-08-26T07:26:34;96790.38;;;20.73;100.00
3668;BME280;24099;47.102;15.440;2022-08-26T07:29:02;96799.53;;;20.82;100.00
3668;BME280;24099;47.102;15.440;2022-08-26T07:31:32;96794.16;;;21.14;100.00
3668;BME280;24099;47.102;15.440;2022-08-26T07:34:00;96790.78;;;21.28;100.00
3668;BME280;24099;47.102;15.440;2022-08-26T07:36:29;96792.69;;;21.33;100.00
3668;BME280;24099;47.102;15.440;2022-08-26T07:38:58;96798.63;;;21.40;100.00
3668;BME280;24099;47.102;15.440;2022-08-26T07:41:26;96790.66;;;21.50;100.00
3668;BME280;24099;47.102;15.440;2022-08-26T07:43:55;96796.31;;;21.64;100.00
3668;BME280;24099;47.102;15.440;2022-08-26T07:46:23;96800.13;;;21.73;100.00
3668;BME280;24099;47.102;15.440;2022-08-26T07:48:51;96797.78;;;21.92;100.00
3668;BME280;24099;47.102;15.440;2022-08-26T07:51:20;96801.28;;;21.97;100.00
3668;BME280;24099;47.102;15.440;2022-08-26T07:53:48;96793.84;;;22.10;100.00
3668;BME280;24099;47.102;15.440;2022-08-26T07:56:17;96794.41;;;22.17;100.00
3668;BME280;24099;47.102;15.440;2022-08-26T07:58:45;96797.13;;;22.42;100.00
3668;BME280;24099;47.102;15.440;2022-08-26T08:01:12;96793.38;;;22.48;100.00
3668;BME280;24099;47.102;15.440;2022-08-26T08:03:40;96793.38;;;22.63;100.00
3668;BME280;24099;47.102;15.440;2022-08-26T08:06:08;96801.72;;;22.72;100.00
3668;BME280;24099;47.102;15.440;2022-08-26T08:08:35;96802.28;;;22.89;100.00
3668;BME280;24099;47.102;15.440;2022-08-26T08:11:05;96808.44;;;22.90;100.00
3668;BME280;24099;47.102;15.440;2022-08-26T08:13:35;96816.72;;;23.19;100.00
3668;BME280;24099;47.102;15.440;2022-08-26T08:16:03;96803.84;;;23.31;100.00
3668;BME280;24099;47.102;15.440;2022-08-26T08:18:31;96804.84;;;23.50;100.00
3668;BME280;24099;47.102;15.440;2022-08-26T08:20:59;96802.19;;;23.55;100.00
3668;BME280;24099;47.102;15.440;2022-08-26T08:23:29;96796.50;;;23.67;100.00
3668;BME280;24099;47.102;15.440;2022-08-26T08:26:00;96803.16;;;23.85;100.00
3668;BME280;24099;47.102;15.440;2022-08-26T08:28:28;96793.16;;;23.95;100.00
3668;BME280;24099;47.102;15.440;2022-08-26T08:30:57;96794.72;;;24.01;100.00
3668;BME280;24099;47.102;15.440;2022-08-26T08:33:25;96788.22;;;24.18;100.00
3668;BME280;24099;47.102;15.440;2022-08-26T08:35:55;96795.44;;;24.27;100.00
3668;BME280;24099;47.102;15.440;2022-08-26T08:38:23;96798.91;;;24.33;100.00
3668;BME280;24099;47.102;15.440;2022-08-26T08:40:52;96795.59;;;24.41;100.00
3668;BME280;24099;47.102;15.440;2022-08-26T08:43:31;96792.59;;;24.53;100.00
3668;BME280;24099;47.102;15.440;2022-08-26T08:46:11;96788.97;;;24.67;100.00
3668;BME280;24099;47.102;15.440;2022-08-26T08:48:44;96800.03;;;25.00;100.00
3668;BME280;24099;47.102;15.440;2022-08-26T08:51:20;96785.34;;;25.16;100.00
3668;BME280;24099;47.102;15.440;2022-08-26T08:53:52;96799.97;;;25.05;100.00
3668;BME280;24099;47.102;15.440;2022-08-26T08:56:25;96791.72;;;25.25;100.00
3668;BME280;24099;47.102;15.440;2022-08-26T08:59:04;96790.78;;;25.64;100.00
3668;BME280;24099;47.102;15.440;2022-08-26T09:01:47;96791.00;;;25.67;100.00
3668;BME280;24099;47.102;15.440;2022-08-26T09:04:55;96791.28;;;25.66;100.00
3668;BME280;24099;47.102;15.440;2022-08-26T09:07:35;96794.16;;;25.51;100.00
3668;BME280;24099;47.102;15.440;2022-08-26T09:10:25;96786.81;;;25.80;100.00
3668;BME280;24099;47.102;15.440;2022-08-26T09:12:55;96790.72;;;26.12;100.00
3668;BME280;24099;47.102;15.440;2022-08-26T09:15:26;96790.22;;;26.09;100.00
3668;BME280;24099;47.102;15.440;2022-08-26T09:18:08;96789.22;;;26.43;100.00
3668;BME280;24099;47.102;15.440;2022-08-26T09:20:48;96782.72;;;26.25;100.00
3668;BME280;24099;47.102;15.440;2022-08-26T09:23:18;96788.88;;;26.31;100.00
3668;BME280;24099;47.102;15.440;2022-08-26T09:25:48;96787.03;;;26.45;100.00
3668;BME280;24099;47.102;15.440;2022-08-26T09:28:19;96781.84;;;26.67;100.00
3668;BME280;24099;47.102;15.440;2022-08-26T09:31:00;96782.34;;;26.69;100.00
3668;BME280;24099;47.102;15.440;2022-08-26T09:33:31;96786.28;;;26.96;100.00
3668;BME280;24099;47.102;15.440;2022-08-26T09:36:17;96779.97;;;27.00;100.00
3668;BME280;24099;47.102;15.440;2022-08-26T09:38:48;96773.69;;;27.19;100.00
3668;BME280;24099;47.102;15.440;2022-08-26T09:41:24;96782.50;;;27.24;100.00
3668;BME280;24099;47.102;15.440;2022-08-26T09:44:11;96782.50;;;27.38;100.00
3668;BME280;24099;47.102;15.440;2022-08-26T09:46:50;96781.56;;;27.61;100.00
3668;BME280;24099;47.102;15.440;2022-08-26T09:49:31;96780.56;;;27.71;100.00
3668;BME280;24099;47.102;15.440;2022-08-26T09:52:12;96777.91;;;27.38;100.00
3668;BME280;24099;47.102;15.440;2022-08-26T09:54:42;96786.56;;;27.54;100.00
3668;BME280;24099;47.102;15.440;2022-08-26T09:57:24;96770.66;;;27.66;100.00
3668;BME280;24099;47.102;15.440;2022-08-26T09:59:52;96770.25;;;27.87;99.35
3668;BME280;24099;47.102;15.440;2022-08-26T10:02:36;96774.25;;;27.89;95.27
3668;BME280;24099;47.102;15.440;2022-08-26T10:05:13;96768.13;;;27.84;96.27
3668;BME280;24099;47.102;15.440;2022-08-26T10:07:47;96765.00;;;28.04;100.00
3668;BME280;24099;47.102;15.440;2022-08-26T10:10:24;96765.19;;;28.07;89.28
3668;BME280;24099;47.102;15.440;2022-08-26T10:13:01;96755.66;;;28.24;96.49
3668;BME280;24099;47.102;15.440;2022-08-26T10:15:40;96752.25;;;28.54;90.62
3668;BME280;24099;47.102;15.440;2022-08-26T10:18:14;96753.38;;;28.39;90.50
3668;BME280;24099;47.102;15.440;2022-08-26T10:20:54;96745.66;;;28.46;91.33
3668;BME280;24099;47.102;15.440;2022-08-26T10:23:25;96748.06;;;28.93;83.57
3668;BME280;24099;47.102;15.440;2022-08-26T10:25:58;96748.44;;;28.77;87.85
3668;BME280;24099;47.102;15.440;2022-08-26T10:28:34;96761.00;;;28.96;91.46
3668;BME280;24099;47.102;15.440;2022-08-26T10:31:11;96750.81;;;29.01;82.21
3668;BME280;24099;47.102;15.440;2022-08-26T10:33:42;96748.16;;;29.10;84.04
3668;BME280;24099;47.102;15.440;2022-08-26T10:36:15;96747.38;;;29.09;79.54
3668;BME280;24099;47.102;15.440;2022-08-26T10:38:59;96742.31;;;29.17;83.24
3668;BME280;24099;47.102;15.440;2022-08-26T10:41:38;96741.84;;;29.23;86.65
3668;BME280;24099;47.102;15.440;2022-08-26T10:44:10;96748.97;;;29.41;83.74
3668;BME280;24099;47.102;15.440;2022-08-26T10:46:46;96744.66;;;29.40;80.76
3668;BME280;24099;47.102;15.440;2022-08-26T10:49:16;96741.66;;;28.66;85.38
3668;BME280;24099;47.102;15.440;2022-08-26T10:51:53;96744.06;;;28.68;85.09
3668;BME280;24099;47.102;15.440;2022-08-26T10:54:30;96737.72;;;28.72;89.66
3668;BME280;24099;47.102;15.440;2022-08-26T10:57:11;96740.25;;;29.22;81.11
3668;BME280;24099;47.102;15.440;2022-08-26T10:59:55;96733.63;;;29.06;83.98
3668;BME280;24099;47.102;15.440;2022-08-26T11:02:32;96728.59;;;28.46;81.26
3668;BME280;24099;47.102;15.440;2022-08-26T11:05:11;96731.63;;;28.67;85.84
3668;BME280;24099;47.102;15.440;2022-08-26T11:07:45;96727.88;;;28.76;82.47
3668;BME280;24099;47.102;15.440;2022-08-26T11:10:56;96733.69;;;29.14;76.12
3668;BME280;24099;47.102;15.440;2022-08-26T11:14:00;96720.25;;;29.40;77.72
3668;BME280;24099;47.102;15.440;2022-08-26T11:16:35;96725.94;;;29.30;76.42
3668;BME280;24099;47.102;15.440;2022-08-26T11:19:03;96721.69;;;29.07;75.42
3668;BME280;24099;47.102;15.440;2022-08-26T11:21:57;96718.31;;;29.89;75.24
3668;BME280;24099;47.102;15.440;2022-08-26T11:25:08;96710.41;;;29.53;71.53
3668;BME280;24099;47.102;15.440;2022-08-26T11:27:55;96714.84;;;30.06;74.54
3668;BME280;24099;47.102;15.440;2022-08-26T11:30:48;96712.28;;;30.18;68.80
3668;BME280;24099;47.102;15.440;2022-08-26T11:33:53;96714.97;;;29.92;71.08
3668;BME280;24099;47.102;15.440;2022-08-26T11:36:56;96703.66;;;30.07;70.14
3668;BME280;24099;47.102;15.440;2022-08-26T11:39:32;96694.66;;;29.72;68.27
3668;BME280;24099;47.102;15.440;2022-08-26T11:42:17;96697.09;;;30.26;68.10
3668;BME280;24099;47.102;15.440;2022-08-26T11:44:47;96689.91;;;30.21;68.35
3668;BME280;24099;47.102;15.440;2022-08-26T11:47:16;96698.22;;;30.76;69.93
3668;BME280;24099;47.102;15.440;2022-08-26T11:50:13;96696.00;;;30.35;63.13
3668;BME280;24099;47.102;15.440;2022-08-26T11:52:51;96685.59;;;30.55;62.75
3668;BME280;24099;47.102;15.440;2022-08-26T11:55:20;96687.03;;;30.43;61.00
3668;BME280;24099;47.102;15.440;2022-08-26T11:57:52;96681.44;;;30.66;63.86
3668;BME280;24099;47.102;15.440;2022-08-26T12:00:22;96685.47;;;30.34;62.72
3668;BME280;24099;47.102;15.440;2022-08-26T12:02:50;96682.09;;;30.11;65.59
3668;BME280;24099;47.102;15.440;2022-08-26T12:05:25;96686.06;;;30.39;65.85
3668;BME280;24099;47.102;15.440;2022-08-26T12:07:55;96686.41;;;30.55;67.29
3668;BME280;24099;47.102;15.440;2022-08-26T12:10:28;96687.34;;;30.76;63.73
3668;BME280;24099;47.102;15.440;2022-08-26T12:12:59;96671.25;;;31.01;64.05
3668;BME280;24099;47.102;15.440;2022-08-26T12:15:32;96670.38;;;31.26;62.62
3668;BME280;24099;47.102;15.440;2022-08-26T12:18:17;96675.88;;;31.09;63.58
3668;BME280;24099;47.102;15.440;2022-08-26T12:20:51;96668.75;;;30.87;64.13
3668;BME280;24099;47.102;15.440;2022-08-26T12:23:23;96657.44;;;30.76;67.02
3668;BME280;24099;47.102;15.440;2022-08-26T12:26:03;96653.63;;;30.69;64.07
3668;BME280;24099;47.102;15.440;2022-08-26T12:28:33;96655.47;;;30.86;62.84
3668;BME280;24099;47.102;15.440;2022-08-26T12:31:07;96654.28;;;31.04;63.17
3668;BME280;24099;47.102;15.440;2022-08-26T12:33:35;96645.75;;;31.52;62.69
3668;BME280;24099;47.102;15.440;2022-08-26T12:36:03;96641.38;;;31.89;60.88
3668;BME280;24099;47.102;15.440;2022-08-26T12:38:34;96644.81;;;31.48;61.54
3668;BME280;24099;47.102;15.440;2022-08-26T12:41:05;96637.63;;;31.43;62.12
3668;BME280;24099;47.102;15.440;2022-08-26T12:43:40;96644.31;;;30.78;62.61
3668;BME280;24099;47.102;15.440;2022-08-26T12:46:11;96637.28;;;31.24;60.88
3668;BME280;24099;47.102;15.440;2022-08-26T12:48:42;96635.97;;;31.30;63.89
3668;BME280;24099;47.102;15.440;2022-08-26T12:51:22;96623.84;;;31.48;64.06
3668;BME280;24099;47.102;15.440;2022-08-26T12:53:51;96609.13;;;32.12;62.39
3668;BME280;24099;47.102;15.440;2022-08-26T12:56:25;96616.75;;;32.18;59.82
3668;BME280;24099;47.102;15.440;2022-08-26T12:59:05;96609.91;;;31.50;61.06
3668;BME280;24099;47.102;15.440;2022-08-26T13:01:39;96614.69;;;31.32;65.71
3668;BME280;24099;47.102;15.440;2022-08-26T13:04:37;96614.94;;;31.10;62.00
3668;BME280;24099;47.102;15.440;2022-08-26T13:07:20;96600.34;;;31.44;63.08
3668;BME280;24099;47.102;15.440;2022-08-26T13:09:48;96605.91;;;31.27;62.57
3668;BME280;24099;47.102;15.440;2022-08-26T13:12:30;96605.91;;;31.27;61.75
3668;BME280;24099;47.102;15.440;2022-08-26T13:15:00;96599.16;;;31.33;61.17
3668;BME280;24099;47.102;15.440;2022-08-26T13:17:29;96592.69;;;31.08;62.76
3668;BME280;24099;47.102;15.440;2022-08-26T13:19:57;96594.66;;;31.37;62.20